TimeBST,TemperatureF,Dew PointF,Humidity,Sea Level PressureIn,VisibilityMPH,Wind Direction,Wind SpeedMPH,Gust SpeedMPH,PrecipitationIn,Events,Conditions,WindDirDegrees,DateUTC
12:50 AM,33,33,100,29.66,5,North,1.2,,,,,0,2012-10-13 23:50:00
12:50 AM,33.8,33.8,100,29.62,5.0,North,1.2,-,N/A,,Unknown,360,2012-10-13 23:50:00
1:50 AM,33.8,32.0,93,29.62,0.1,SSW,1.2,-,N/A,,Mostly Cloudy,210,2012-10-14 00:50:00
3:50 AM,31,31,97,29.64,4,ESE,3.5,,,,Scattered Clouds,120,2012-10-14 02:50:00
3:50 AM,32.0,30.2,93,29.62,3.7,ESE,3.5,-,N/A,,Partly Cloudy,120,2012-10-14 02:50:00
4:50 AM,30.2,30.2,100,29.59,5.0,East,3.5,-,N/A,,Unknown,80,2012-10-14 03:50:00
5:50 AM,30.2,30.2,100,29.59,0.5,ENE,1.2,-,N/A,,Partly Cloudy,70,2012-10-14 04:50:00
6:50 AM,28,27,96,29.63,7,East,1.2,,,,Scattered Clouds,80,2012-10-14 05:50:00
6:50 AM,28.4,26.6,93,29.59,6.2,East,1.2,-,N/A,,Partly Cloudy,80,2012-10-14 05:50:00
7:50 AM,30.2,30.2,100,29.59,0.7,ENE,4.6,-,N/A,Fog,Fog,60,2012-10-14 06:50:00
8:50 AM,33.8,33.8,100,29.59,0.1,NNW,1.2,-,N/A,,Unknown,340,2012-10-14 07:50:00
9:50 AM,36,35,95,29.62,0,NE,1.2,,,,,50,2012-10-14 08:50:00
9:50 AM,37.4,35.6,93,29.59,0.2,NE,1.2,-,N/A,,Unknown,50,2012-10-14 08:50:00
10:50 AM,41.0,41.0,100,29.59,6.2,WNW,1.2,-,N/A,,Mostly Cloudy,290,2012-10-14 09:50:00
11:50 AM,44.6,41.0,87,29.59,6.2,North,3.5,-,N/A,,Unknown,350,2012-10-14 10:50:00
12:50 PM,50,43,68,29.60,19,NNW,3.5,,,,Scattered Clouds,340,2012-10-14 11:50:00
12:50 PM,50.0,42.8,76,29.59,6.2,NNW,3.5,-,N/A,,Partly Cloudy,340,2012-10-14 11:50:00
1:50 PM,51.8,35.6,54,29.56,6.2,North,10.4,-,N/A,,Partly Cloudy,350,2012-10-14 12:50:00
3:50 PM,51,39,53,29.60,22,NW,8.1,,,,Scattered Clouds,320,2012-10-14 14:50:00
3:50 PM,51.8,39.2,62,29.59,6.2,NW,8.1,-,N/A,,Partly Cloudy,320,2012-10-14 14:50:00
4:50 PM,51.8,41.0,67,29.59,6.2,NW,5.8,-,N/A,,Partly Cloudy,320,2012-10-14 15:50:00
5:50 PM,51.8,41.0,67,29.59,6.2,WNW,5.8,-,N/A,,Mostly Cloudy,300,2012-10-14 16:50:00
6:50 PM,48,41,70,29.62,14,WNW,3.5,,,,Scattered Clouds,290,2012-10-14 17:50:00
6:50 PM,48.2,41.0,76,29.59,6.2,WNW,3.5,-,N/A,,Scattered Clouds,290,2012-10-14 17:50:00
7:50 PM,46.4,41.0,81,29.59,6.2,WNW,3.5,-,N/A,,Mostly Cloudy,300,2012-10-14 18:50:00
8:50 PM,44.6,39.2,81,29.62,6.2,West,3.5,-,N/A,,Mostly Cloudy,280,2012-10-14 19:50:00
9:50 PM,40,38,88,29.65,13,SSE,2.3,,,,Mostly Cloudy,160,2012-10-14 20:50:00
9:50 PM,39.2,37.4,93,29.62,6.2,SSE,2.3,-,N/A,,Mostly Cloudy,160,2012-10-14 20:50:00
10:50 PM,35.6,33.8,93,29.62,6.2,South,2.3,-,N/A,,Partly Cloudy,180,2012-10-14 21:50:00
11:50 PM,32.0,30.2,93,29.62,6.2,South,2.3,-,N/A,,Unknown,180,2012-10-14 22:50:00